createdAt,value
2023-03-05T00:02:58.158Z,1.00
2023-03-05T00:06:02.790Z,0.90
2023-03-05T00:09:07.331Z,0.90
2023-03-05T00:12:12.464Z,0.90
2023-03-05T00:15:16.787Z,0.90
2023-03-05T00:18:22.083Z,1.00
2023-03-05T00:21:36.168Z,1.00
2023-03-05T00:24:40.257Z,1.00
2023-03-05T00:27:44.940Z,1.00
2023-03-05T00:30:49.479Z,1.10
2023-03-05T00:33:55.517Z,1.20
2023-03-05T00:37:00.017Z,1.30
2023-03-05T00:40:05.393Z,1.20
2023-03-05T00:43:10.531Z,1.20
2023-03-05T00:46:14.945Z,1.30
2023-03-05T00:49:19.856Z,1.20
2023-03-05T00:52:24.351Z,1.00
2023-03-05T00:55:28.704Z,1.00
2023-03-05T00:58:33.168Z,1.00
2023-03-05T01:01:37.677Z,1.00
2023-03-05T01:04:45.800Z,1.00
2023-03-05T01:07:55.808Z,0.90
2023-03-05T01:11:00.104Z,0.90
2023-03-05T01:14:04.513Z,0.80
2023-03-05T01:17:09.149Z,0.80
2023-03-05T01:20:16.293Z,0.80
2023-03-05T01:23:20.778Z,0.80
2023-03-05T01:26:25.667Z,0.80
2023-03-05T01:29:30.067Z,0.80
2023-03-05T01:32:37.693Z,0.90
2023-03-05T01:35:42.434Z,1.00
2023-03-05T01:38:47.986Z,1.00
2023-03-05T01:41:52.969Z,1.00
2023-03-05T01:45:07.066Z,1.00
2023-03-05T01:48:11.436Z,1.10
2023-03-05T01:51:17.828Z,1.10
2023-03-05T01:54:28.154Z,1.10
2023-03-05T01:57:37.862Z,1.10
2023-03-05T02:00:48.351Z,1.00
2023-03-05T02:03:53.396Z,1.10
2023-03-05T02:06:58.837Z,1.10
2023-03-05T02:10:17.892Z,1.20
2023-03-05T02:13:29.217Z,1.20
2023-03-05T02:16:37.041Z,1.20
2023-03-05T02:19:54.421Z,1.20
2023-03-05T02:22:59.228Z,1.20
2023-03-05T02:26:09.223Z,1.10
2023-03-05T02:29:19.134Z,1.10
2023-03-05T02:32:23.753Z,1.20
2023-03-05T02:35:28.152Z,1.20
2023-03-05T02:38:33.336Z,1.20
2023-03-05T02:41:38.210Z,1.20
2023-03-05T02:44:43.016Z,1.20
2023-03-05T02:47:48.054Z,1.00
2023-03-05T02:50:53.310Z,0.70
2023-03-05T02:53:57.951Z,0.50
2023-03-05T02:57:04.458Z,0.40
2023-03-05T03:00:09.706Z,0.20
2023-03-05T03:03:14.646Z,0.20
2023-03-05T03:06:19.009Z,0.20
2023-03-05T03:09:23.388Z,0.00
2023-03-05T03:12:27.922Z,0.00
2023-03-05T03:15:33.104Z,-0.10
2023-03-05T03:18:37.920Z,-0.20
2023-03-05T03:21:42.635Z,-0.20
2023-03-05T03:24:47.264Z,-0.10
2023-03-05T03:27:51.635Z,0.10
2023-03-05T03:30:56.084Z,0.20
2023-03-05T03:34:00.265Z,0.30
2023-03-05T03:37:04.875Z,0.50
2023-03-05T03:40:11.307Z,0.50
2023-03-05T03:43:16.281Z,0.50
2023-03-05T03:46:20.947Z,0.40
2023-03-05T03:49:26.347Z,0.50
2023-03-05T03:52:30.794Z,0.40
2023-03-05T03:55:35.610Z,0.50
2023-03-05T03:58:40.144Z,0.40
2023-03-05T04:01:44.774Z,0.60
2023-03-05T04:04:49.301Z,0.50
2023-03-05T04:07:53.726Z,0.60
2023-03-05T04:10:58.017Z,0.60
2023-03-05T04:14:03.254Z,0.50
2023-03-05T04:17:07.576Z,0.60
2023-03-05T04:20:12.468Z,0.60
2023-03-05T04:23:18.034Z,0.60
2023-03-05T04:26:22.744Z,0.50
2023-03-05T04:29:27.306Z,0.50
2023-03-05T04:32:31.794Z,0.40
2023-03-05T04:35:36.895Z,0.40
2023-03-05T04:38:41.814Z,0.40
2023-03-05T04:41:46.916Z,0.30
2023-03-05T04:44:51.658Z,0.20
2023-03-05T04:47:55.928Z,0.20
2023-03-05T04:51:00.126Z,0.20
2023-03-05T04:54:04.775Z,0.10
2023-03-05T04:57:09.782Z,0.10
2023-03-05T05:00:15.472Z,0.00
2023-03-05T05:03:19.656Z,-0.10
2023-03-05T05:06:23.952Z,-0.10
2023-03-05T05:09:28.476Z,-0.10
2023-03-05T05:12:32.617Z,0.20
2023-03-05T05:15:37.085Z,0.20
2023-03-05T05:18:41.342Z,0.10
2023-03-05T05:21:45.522Z,0.20
2023-03-05T05:24:50.096Z,0.10
2023-03-05T05:27:54.591Z,0.10
2023-03-05T05:30:59.290Z,0.00
2023-03-05T05:34:04.081Z,0.00
2023-03-05T05:37:08.311Z,-0.10
2023-03-05T05:40:13.000Z,-0.10
2023-03-05T05:43:17.286Z,-0.20
2023-03-05T05:46:22.441Z,-0.20
2023-03-05T05:49:26.891Z,-0.20
2023-03-05T05:52:31.400Z,-0.20
2023-03-05T05:55:35.859Z,-0.30
2023-03-05T05:58:41.358Z,-0.30
2023-03-05T06:01:46.154Z,-0.50
2023-03-05T06:04:50.550Z,-0.50
2023-03-05T06:07:54.871Z,-0.60
2023-03-05T06:10:59.425Z,-0.60
2023-03-05T06:14:04.262Z,-0.50
2023-03-05T06:17:11.113Z,-0.30
2023-03-05T06:20:16.351Z,-0.10
2023-03-05T06:23:20.815Z,0.20
2023-03-05T06:26:25.769Z,0.40
2023-03-05T06:29:30.476Z,0.60
2023-03-05T06:32:34.604Z,0.90
2023-03-05T06:35:40.132Z,0.80
2023-03-05T06:38:47.361Z,0.80
2023-03-05T06:41:52.988Z,1.30
2023-03-05T06:44:57.413Z,1.50
2023-03-05T06:48:01.806Z,1.50
2023-03-05T06:51:13.537Z,1.50
2023-03-05T06:54:18.442Z,1.60
2023-03-05T06:57:23.213Z,1.80
2023-03-05T07:00:29.665Z,1.70
2023-03-05T07:03:35.321Z,1.70
2023-03-05T07:06:42.132Z,1.80
2023-03-05T07:09:48.065Z,1.50
2023-03-05T07:12:52.695Z,1.60
2023-03-05T07:15:57.277Z,1.90
2023-03-05T07:19:03.906Z,2.60
2023-03-05T07:22:08.892Z,3.20
2023-03-05T07:25:13.390Z,3.40
2023-03-05T07:28:17.948Z,3.60
2023-03-05T07:31:27.397Z,3.80
2023-03-05T07:34:31.894Z,4.30
2023-03-05T07:37:36.558Z,4.60
2023-03-05T07:40:40.780Z,4.70
2023-03-05T07:43:48.877Z,4.00
2023-03-05T07:46:53.167Z,4.40
2023-03-05T07:49:57.464Z,4.60
2023-03-05T07:53:01.814Z,4.80
2023-03-05T07:56:07.012Z,4.80
2023-03-05T07:59:12.393Z,5.20
2023-03-05T08:02:19.105Z,5.40
2023-03-05T08:05:23.959Z,5.90
2023-03-05T08:08:28.446Z,6.00
2023-03-05T08:11:33.119Z,6.10
2023-03-05T08:14:38.004Z,6.30
2023-03-05T08:17:42.759Z,6.60
2023-03-05T08:20:47.482Z,6.10
2023-03-05T08:23:51.986Z,6.60
2023-03-05T08:26:57.556Z,6.70
2023-03-05T08:30:02.937Z,7.10
2023-03-05T08:33:07.706Z,7.00
2023-03-05T08:36:13.195Z,7.30
2023-03-05T08:39:18.863Z,7.50
2023-03-05T08:42:23.631Z,7.70
2023-03-05T08:45:28.643Z,7.50
2023-03-05T08:48:33.306Z,8.60
2023-03-05T08:51:37.555Z,7.40
2023-03-05T08:54:42.037Z,7.80
2023-03-05T08:57:46.552Z,7.60
2023-03-05T09:00:51.278Z,6.80
2023-03-05T09:03:55.315Z,7.30
2023-03-05T09:06:59.767Z,8.00
2023-03-05T09:10:06.008Z,8.60
2023-03-05T09:13:11.047Z,8.90
2023-03-05T09:16:17.790Z,8.10
2023-03-05T09:19:22.535Z,7.50
2023-03-05T09:22:26.848Z,8.10
2023-03-05T09:25:31.300Z,7.90
2023-03-05T09:28:36.394Z,8.00
2023-03-05T09:31:41.374Z,7.10
2023-03-05T09:34:46.084Z,8.30
2023-03-05T09:37:50.544Z,8.90
2023-03-05T09:41:30.293Z,9.20
2023-03-05T09:45:08.593Z,9.40
2023-03-05T09:48:22.701Z,8.70
2023-03-05T09:51:37.941Z,9.20
2023-03-05T09:54:45.345Z,9.30
2023-03-05T09:57:55.265Z,9.30
2023-03-05T10:01:04.697Z,10.30
2023-03-05T10:04:09.524Z,9.90
2023-03-05T10:07:34.184Z,10.00
2023-03-05T10:10:44.799Z,9.20
2023-03-05T10:13:52.132Z,10.60
2023-03-05T10:17:22.388Z,9.90
2023-03-05T10:20:53.896Z,8.70
2023-03-05T10:24:41.487Z,8.30
2023-03-05T10:27:55.038Z,10.60
2023-03-05T10:31:21.540Z,9.50
2023-03-05T10:34:44.474Z,10.60
2023-03-05T10:38:00.364Z,10.20
2023-03-05T10:41:35.241Z,11.10
2023-03-05T10:44:49.641Z,10.80
2023-03-05T10:47:55.524Z,11.30
2023-03-05T10:51:21.331Z,11.70
2023-03-05T10:54:31.167Z,12.40
2023-03-05T10:57:35.851Z,12.20
2023-03-05T11:00:41.621Z,10.60
2023-03-05T11:03:59.899Z,11.80
2023-03-05T11:07:24.681Z,12.10
2023-03-05T11:10:29.117Z,12.90
2023-03-05T11:13:35.942Z,13.30
2023-03-05T11:16:48.599Z,13.20
2023-03-05T11:19:53.233Z,11.10
2023-03-05T11:23:21.080Z,10.50
2023-03-05T11:26:25.275Z,10.10
2023-03-05T11:29:32.346Z,11.60
2023-03-05T11:32:36.286Z,12.40
2023-03-05T11:35:43.209Z,12.00
2023-03-05T11:39:09.807Z,12.00
2023-03-05T11:42:24.641Z,12.80
2023-03-05T11:45:31.780Z,13.20
2023-03-05T11:48:38.372Z,11.30
2023-03-05T11:51:56.086Z,11.80
2023-03-05T11:55:22.050Z,13.20
2023-03-05T11:58:32.284Z,13.00
2023-03-05T12:01:46.254Z,11.70
2023-03-05T12:04:51.313Z,12.30
2023-03-05T12:08:01.025Z,11.50
2023-03-05T12:11:19.719Z,11.30
2023-03-05T12:14:26.860Z,11.00
2023-03-05T12:17:44.529Z,11.40
2023-03-05T12:21:26.016Z,10.80
2023-03-05T12:24:30.525Z,11.90
2023-03-05T12:27:36.851Z,11.60
2023-03-05T12:30:41.393Z,12.00
2023-03-05T12:33:45.655Z,11.30
2023-03-05T12:36:50.155Z,13.40
2023-03-05T12:40:08.572Z,13.10
2023-03-05T12:43:31.138Z,12.00
2023-03-05T12:46:40.356Z,13.00
2023-03-05T12:49:45.974Z,13.50
2023-03-05T12:52:50.625Z,13.40
2023-03-05T12:56:02.988Z,12.40
2023-03-05T12:59:10.259Z,11.30
2023-03-05T13:02:30.423Z,12.70
2023-03-05T13:05:38.151Z,12.00
2023-03-05T13:08:43.550Z,10.90
2023-03-05T13:11:51.796Z,12.00
2023-03-05T13:15:05.784Z,11.40
2023-03-05T13:18:21.050Z,11.60
2023-03-05T13:21:28.954Z,10.00
2023-03-05T13:24:33.482Z,10.40
2023-03-05T13:27:38.048Z,10.60
2023-03-05T13:30:51.663Z,11.00
2023-03-05T13:34:05.511Z,10.70
2023-03-05T13:37:20.497Z,9.10
2023-03-05T13:40:32.786Z,10.60
2023-03-05T13:43:46.932Z,11.40
2023-03-05T13:46:51.293Z,9.10
2023-03-05T13:50:07.822Z,9.50
2023-03-05T13:53:36.594Z,9.30
2023-03-05T13:56:53.172Z,8.90
2023-03-05T13:59:57.793Z,10.60
2023-03-05T14:03:24.876Z,10.40
2023-03-05T14:06:30.897Z,11.30
2023-03-05T14:09:41.118Z,10.90
2023-03-05T14:12:45.344Z,10.10
2023-03-05T14:16:15.936Z,8.30
2023-03-05T14:19:32.264Z,9.50
2023-03-05T14:22:38.560Z,10.60
2023-03-05T14:25:43.011Z,8.60
2023-03-05T14:28:55.899Z,9.80
2023-03-05T14:32:07.526Z,11.20
2023-03-05T14:35:24.654Z,10.50
2023-03-05T14:38:34.086Z,11.40
2023-03-05T14:41:40.899Z,11.40
2023-03-05T14:44:45.205Z,11.20
2023-03-05T14:47:54.480Z,11.30
2023-03-05T14:51:01.124Z,11.80
2023-03-05T14:54:06.163Z,12.30
2023-03-05T14:57:18.553Z,11.80
2023-03-05T15:00:26.270Z,11.10
2023-03-05T15:03:30.609Z,10.40
2023-03-05T15:06:38.049Z,10.50
2023-03-05T15:09:43.823Z,11.00
2023-03-05T15:12:50.351Z,10.20
2023-03-05T15:15:55.394Z,9.30
2023-03-05T15:19:00.051Z,9.70
2023-03-05T15:22:04.372Z,9.20
2023-03-05T15:25:09.252Z,9.90
2023-03-05T15:28:13.918Z,9.90
2023-03-05T15:31:18.675Z,10.60
2023-03-05T15:34:23.166Z,11.60
2023-03-05T15:37:27.628Z,11.00
2023-03-05T15:40:32.476Z,12.00
2023-03-05T15:43:37.274Z,12.60
2023-03-05T15:46:42.082Z,11.50
2023-03-05T15:49:46.503Z,11.60
2023-03-05T15:52:51.517Z,11.30
2023-03-05T15:55:55.800Z,10.80
2023-03-05T15:59:00.974Z,11.50
2023-03-05T16:02:06.677Z,10.00
2023-03-05T16:05:11.403Z,10.70
2023-03-05T16:08:15.831Z,10.60
2023-03-05T16:11:20.528Z,10.10
2023-03-05T16:14:27.535Z,9.60
2023-03-05T16:17:32.515Z,9.30
2023-03-05T16:20:36.784Z,8.20
2023-03-05T16:23:41.279Z,6.90
2023-03-05T16:26:45.906Z,6.10
2023-03-05T16:29:51.105Z,5.60
2023-03-05T16:32:56.046Z,5.40
2023-03-05T16:36:16.110Z,5.10
2023-03-05T16:39:21.548Z,4.10
2023-03-05T16:42:25.935Z,3.40
2023-03-05T16:45:30.921Z,3.10
2023-03-05T16:48:35.854Z,2.80
2023-03-05T16:51:40.042Z,2.50
2023-03-05T16:54:44.783Z,2.40
2023-03-05T16:57:49.251Z,2.30
2023-03-05T17:00:53.877Z,2.20
2023-03-05T17:03:59.489Z,2.10
2023-03-05T17:07:05.431Z,2.00
2023-03-05T17:10:10.524Z,1.90
2023-03-05T17:13:14.925Z,1.90
2023-03-05T17:16:20.685Z,1.80
2023-03-05T17:19:25.055Z,1.70
2023-03-05T17:22:29.546Z,1.60
2023-03-05T17:25:34.015Z,1.60
2023-03-05T17:28:38.863Z,1.60
2023-03-05T17:31:43.272Z,1.50
2023-03-05T17:34:47.723Z,1.40
2023-03-05T17:37:55.148Z,1.40
2023-03-05T17:40:59.595Z,1.30
2023-03-05T17:44:04.272Z,1.40
2023-03-05T17:47:08.875Z,1.30
2023-03-05T17:50:14.147Z,1.30
2023-03-05T17:53:18.801Z,1.30
2023-03-05T17:56:23.412Z,1.20
2023-03-05T17:59:28.859Z,1.20
2023-03-05T18:02:33.504Z,1.10
2023-03-05T18:05:38.016Z,1.10
2023-03-05T18:08:42.691Z,1.10
2023-03-05T18:11:47.141Z,1.10
2023-03-05T18:14:52.181Z,1.00
2023-03-05T18:17:57.317Z,1.00
2023-03-05T18:21:01.683Z,1.00
2023-03-05T18:24:06.733Z,0.90
2023-03-05T18:27:11.094Z,0.90
2023-03-05T18:30:15.856Z,0.90
2023-03-05T18:33:25.592Z,0.90
2023-03-05T18:36:30.269Z,0.80
2023-03-05T18:39:35.583Z,0.90
2023-03-05T18:42:40.076Z,0.90
2023-03-05T18:45:45.736Z,0.90
2023-03-05T18:48:49.939Z,0.90
2023-03-05T18:51:54.465Z,0.90
2023-03-05T18:54:59.232Z,0.80
2023-03-05T18:58:04.976Z,0.90
2023-03-05T19:01:09.893Z,0.80
2023-03-05T19:04:14.137Z,0.80
2023-03-05T19:07:18.526Z,0.70
2023-03-05T19:10:23.671Z,0.70
2023-03-05T19:13:48.744Z,0.80
2023-03-05T19:16:52.920Z,0.80
2023-03-05T19:19:59.600Z,0.70
2023-03-05T19:23:03.762Z,0.70
2023-03-05T19:26:08.386Z,0.80
2023-03-05T19:29:13.476Z,0.90
2023-03-05T19:32:18.505Z,0.90
2023-03-05T19:35:22.796Z,0.80
2023-03-05T19:38:27.408Z,0.90
2023-03-05T19:41:32.285Z,0.80
2023-03-05T19:44:37.163Z,0.80
2023-03-05T19:47:41.899Z,0.80
2023-03-05T19:50:46.327Z,0.80
2023-03-05T19:53:51.311Z,0.80
2023-03-05T19:56:56.083Z,0.90
2023-03-05T20:00:00.602Z,0.80
2023-03-05T20:03:04.936Z,0.80
2023-03-05T20:06:09.486Z,0.80
2023-03-05T20:09:15.429Z,0.70
2023-03-05T20:12:20.308Z,0.90
2023-03-05T20:15:29.173Z,0.80
2023-03-05T20:18:34.803Z,0.90
2023-03-05T20:21:41.128Z,0.90
2023-03-05T20:24:45.729Z,0.90
2023-03-05T20:27:50.926Z,0.80
2023-03-05T20:30:56.953Z,0.80
2023-03-05T20:34:01.612Z,0.70
2023-03-05T20:37:05.991Z,0.80
2023-03-05T20:40:11.296Z,0.70
2023-03-05T20:43:15.824Z,0.80
2023-03-05T20:46:23.456Z,0.80
2023-03-05T20:49:27.882Z,0.70
2023-03-05T20:52:32.195Z,0.70
2023-03-05T20:55:36.580Z,0.70
2023-03-05T20:58:41.237Z,0.70
2023-03-05T21:01:45.725Z,0.80
2023-03-05T21:04:50.313Z,0.80
2023-03-05T21:07:55.088Z,0.70
2023-03-05T21:11:00.152Z,0.70
2023-03-05T21:14:04.934Z,0.60
2023-03-05T21:17:10.044Z,0.50
2023-03-05T21:20:17.839Z,0.50
2023-03-05T21:23:22.189Z,0.60
2023-03-05T21:26:26.641Z,0.60
2023-03-05T21:29:31.057Z,0.50
2023-03-05T21:32:36.578Z,0.50
2023-03-05T21:35:41.042Z,0.50
2023-03-05T21:38:46.955Z,0.50
2023-03-05T21:41:51.238Z,0.50
2023-03-05T21:44:55.561Z,0.50
2023-03-05T21:47:59.873Z,0.50
2023-03-05T21:51:08.571Z,0.60
2023-03-05T21:54:12.866Z,0.50
2023-03-05T21:57:17.236Z,0.50
2023-03-05T22:00:23.255Z,0.50
2023-03-05T22:03:29.044Z,0.50
2023-03-05T22:06:33.311Z,0.40
2023-03-05T22:09:38.041Z,0.40
2023-03-05T22:13:10.131Z,0.40
2023-03-05T22:16:24.616Z,0.30
2023-03-05T22:19:32.139Z,0.40
2023-03-05T22:22:36.770Z,0.40
2023-03-05T22:25:44.670Z,0.40
2023-03-05T22:28:49.393Z,0.40
2023-03-05T22:31:54.553Z,0.40
2023-03-05T22:34:59.321Z,0.40
2023-03-05T22:38:03.762Z,0.30
2023-03-05T22:41:10.390Z,0.30
2023-03-05T22:44:14.287Z,0.40
2023-03-05T22:47:18.475Z,0.40
2023-03-05T22:50:23.028Z,0.30
2023-03-05T22:53:27.538Z,0.30
2023-03-05T22:56:32.013Z,0.30
2023-03-05T22:59:36.281Z,0.30
2023-03-05T23:02:41.928Z,0.30
2023-03-05T23:05:46.340Z,0.30
2023-03-05T23:08:50.899Z,0.30
2023-03-05T23:11:55.219Z,0.30
2023-03-05T23:15:01.255Z,0.30
2023-03-05T23:18:06.611Z,0.30
2023-03-05T23:21:10.797Z,0.30
2023-03-05T23:24:15.620Z,0.30
2023-03-05T23:27:20.226Z,0.30
2023-03-05T23:30:26.317Z,0.30
2023-03-05T23:33:30.829Z,0.20
2023-03-05T23:36:35.203Z,0.20
2023-03-05T23:39:39.519Z,0.20
2023-03-05T23:42:44.573Z,0.30
2023-03-05T23:45:49.553Z,0.20
2023-03-05T23:48:53.991Z,0.20
2023-03-05T23:51:58.395Z,0.20
2023-03-05T23:55:02.878Z,0.20
2023-03-05T23:58:07.580Z,0.20
